createdAt,value
2017-02-26T00:00:26.511Z,0
2017-02-26T00:01:25.656Z,0
2017-02-26T00:02:25.666Z,0
2017-02-26T00:03:25.950Z,0
2017-02-26T00:04:25.736Z,0
2017-02-26T00:05:26.151Z,0
2017-02-26T00:06:25.792Z,0
2017-02-26T00:07:27.006Z,0
2017-02-26T00:08:26.893Z,0
2017-02-26T00:09:27.047Z,0
2017-02-26T00:10:27.084Z,0
2017-02-26T00:11:27.108Z,0
2017-02-26T00:12:26.739Z,0
2017-02-26T00:13:27.004Z,0
2017-02-26T00:14:26.786Z,0
2017-02-26T00:15:26.809Z,0
2017-02-26T00:16:26.839Z,0
2017-02-26T00:17:26.463Z,0
2017-02-26T00:18:27.152Z,0
2017-02-26T00:19:26.928Z,0
2017-02-26T00:20:26.959Z,0
2017-02-26T00:21:27.407Z,0
2017-02-26T00:22:26.216Z,0
2017-02-26T00:23:26.921Z,0
2017-02-26T00:24:25.869Z,0
2017-02-26T00:25:27.074Z,0
2017-02-26T00:26:26.715Z,0
2017-02-26T00:27:26.344Z,0
2017-02-26T00:28:27.424Z,0
2017-02-26T00:29:27.572Z,0
2017-02-26T00:30:27.618Z,0
2017-02-26T00:31:27.243Z,0
2017-02-26T00:32:26.883Z,0
2017-02-26T00:33:26.884Z,0
2017-02-26T00:34:27.572Z,0
2017-02-26T00:35:26.560Z,0
2017-02-26T00:36:27.006Z,0
2017-02-26T00:37:27.010Z,0
2017-02-26T00:38:27.040Z,0
2017-02-26T00:39:26.517Z,0
2017-02-26T00:40:27.493Z,0
2017-02-26T00:41:26.726Z,0
2017-02-26T00:42:27.538Z,0
2017-02-26T00:43:26.803Z,0
2017-02-26T00:44:27.847Z,0
2017-02-26T00:45:27.252Z,0
2017-02-26T00:46:26.861Z,0
2017-02-26T00:47:27.662Z,0
2017-02-26T00:48:27.315Z,0
2017-02-26T00:49:27.588Z,0
2017-02-26T00:50:26.964Z,0
2017-02-26T00:51:28.165Z,0
2017-02-26T00:52:28.202Z,0
2017-02-26T00:53:27.443Z,0
2017-02-26T00:54:28.505Z,0
2017-02-26T00:55:27.492Z,0
2017-02-26T00:56:27.516Z,0
2017-02-26T00:57:27.548Z,0
2017-02-26T00:58:27.970Z,0
2017-02-26T00:59:28.637Z,0
2017-02-26T01:00:27.612Z,0
2017-02-26T01:01:28.450Z,0
2017-02-26T01:02:28.061Z,0
2017-02-26T01:03:27.705Z,0
2017-02-26T01:04:28.386Z,0
2017-02-26T01:05:27.738Z,0
2017-02-26T01:06:28.166Z,0
2017-02-26T01:07:27.812Z,0
2017-02-26T01:08:27.448Z,0
2017-02-26T01:09:28.559Z,0
2017-02-26T01:10:28.675Z,0
2017-02-26T01:11:27.915Z,0
2017-02-26T01:12:28.740Z,0
2017-02-26T01:13:28.417Z,0
2017-02-26T01:14:28.636Z,0
2017-02-26T01:15:28.415Z,0
2017-02-26T01:16:28.462Z,0
2017-02-26T01:17:28.855Z,0
2017-02-26T01:18:28.112Z,0
2017-02-26T01:19:28.796Z,0
2017-02-26T01:20:28.153Z,0
2017-02-26T01:21:28.966Z,0
2017-02-26T01:22:28.594Z,0
2017-02-26T01:23:28.248Z,0
2017-02-26T01:24:28.520Z,0
2017-02-26T01:25:27.889Z,0
2017-02-26T01:26:28.309Z,0
2017-02-26T01:27:27.966Z,0
2017-02-26T01:28:27.967Z,0
2017-02-26T01:29:28.248Z,0
2017-02-26T01:30:28.821Z,0
2017-02-26T01:31:28.825Z,0
2017-02-26T01:32:29.256Z,0
2017-02-26T01:33:28.898Z,0
2017-02-26T01:34:28.784Z,0
2017-02-26T01:35:28.152Z,0
2017-02-26T01:36:28.981Z,0
2017-02-26T01:37:28.610Z,0
2017-02-26T01:38:29.426Z,0
2017-02-26T01:39:28.897Z,0
2017-02-26T01:40:28.696Z,0
2017-02-26T01:41:29.165Z,0
2017-02-26T01:42:29.145Z,0
2017-02-26T01:43:28.776Z,0
2017-02-26T01:44:28.662Z,0
2017-02-26T01:45:28.012Z,0
2017-02-26T01:46:28.846Z,0
2017-02-26T01:47:29.253Z,0
2017-02-26T01:48:28.505Z,0
2017-02-26T01:49:29.558Z,0
2017-02-26T01:50:29.751Z,0
2017-02-26T01:51:29.364Z,0
2017-02-26T01:52:29.005Z,0
2017-02-26T01:53:29.033Z,0
2017-02-26T01:54:30.109Z,0
2017-02-26T01:55:29.086Z,0
2017-02-26T01:56:28.705Z,0
2017-02-26T01:57:28.747Z,0
2017-02-26T01:58:29.541Z,0
2017-02-26T01:59:29.450Z,0
2017-02-26T02:00:29.614Z,0
2017-02-26T02:01:29.245Z,0
2017-02-26T02:02:29.642Z,0
2017-02-26T02:03:28.885Z,0
2017-02-26T02:04:29.956Z,0
2017-02-26T02:05:29.338Z,0
2017-02-26T02:06:29.378Z,0
2017-02-26T02:07:29.007Z,0
2017-02-26T02:08:30.203Z,0
2017-02-26T02:09:30.091Z,0
2017-02-26T02:10:29.878Z,0
2017-02-26T02:11:29.893Z,0
2017-02-26T02:12:29.534Z,0
2017-02-26T02:13:29.151Z,0
2017-02-26T02:14:29.838Z,0
2017-02-26T02:15:29.220Z,0
2017-02-26T02:16:29.661Z,0
2017-02-26T02:17:29.637Z,0
2017-02-26T02:18:29.698Z,0
2017-02-26T02:19:30.358Z,0
2017-02-26T02:20:29.735Z,0
2017-02-26T02:21:30.154Z,0
2017-02-26T02:22:30.174Z,0
2017-02-26T02:23:29.836Z,0
2017-02-26T02:24:29.490Z,0
2017-02-26T02:25:30.113Z,0
2017-02-26T02:26:29.900Z,0
2017-02-26T02:27:29.934Z,0
2017-02-26T02:28:30.769Z,0
2017-02-26T02:29:30.387Z,0
2017-02-26T02:30:30.271Z,0
2017-02-26T02:31:30.848Z,0
2017-02-26T02:32:30.471Z,0
2017-02-26T02:33:30.077Z,0
2017-02-26T02:34:29.713Z,0
2017-02-26T02:35:29.986Z,0
2017-02-26T02:36:29.754Z,0
2017-02-26T02:37:30.988Z,0
2017-02-26T02:38:30.221Z,0
2017-02-26T02:39:31.009Z,0
2017-02-26T02:40:30.914Z,0
2017-02-26T02:41:30.686Z,0
2017-02-26T02:42:30.706Z,0
2017-02-26T02:43:30.360Z,0
2017-02-26T02:44:29.587Z,0
2017-02-26T02:45:30.642Z,0
2017-02-26T02:46:30.022Z,0
2017-02-26T02:47:30.451Z,0
2017-02-26T02:48:30.483Z,0
2017-02-26T02:49:31.291Z,0
2017-02-26T02:50:31.568Z,0
2017-02-26T02:51:30.981Z,0
2017-02-26T02:52:30.981Z,0
2017-02-26T02:53:30.599Z,0
2017-02-26T02:54:30.632Z,0
2017-02-26T02:55:31.697Z,0
2017-02-26T02:56:30.677Z,0
2017-02-26T02:57:30.707Z,0
2017-02-26T02:58:30.730Z,0
2017-02-26T02:59:30.772Z,0
2017-02-26T03:00:31.441Z,0
2017-02-26T03:01:30.417Z,0
2017-02-26T03:02:30.462Z,0
2017-02-26T03:03:30.866Z,0
2017-02-26T03:04:30.895Z,0
2017-02-26T03:05:31.572Z,0
2017-02-26T03:06:31.339Z,0
2017-02-26T03:07:31.390Z,0
2017-02-26T03:08:31.796Z,0
2017-02-26T03:09:31.814Z,0
2017-02-26T03:10:31.323Z,0
2017-02-26T03:11:31.076Z,0
2017-02-26T03:12:31.109Z,0
2017-02-26T03:13:30.734Z,0
2017-02-26T03:14:30.355Z,0
2017-02-26T03:15:31.436Z,0
2017-02-26T03:16:30.831Z,0
2017-02-26T03:17:31.673Z,0
2017-02-26T03:18:31.653Z,0
2017-02-26T03:19:31.710Z,0
2017-02-26T03:20:31.964Z,0
2017-02-26T03:21:31.343Z,0
2017-02-26T03:22:31.796Z,0
2017-02-26T03:23:31.376Z,0
2017-02-26T03:24:31.422Z,0
2017-02-26T03:25:31.706Z,0
2017-02-26T03:26:31.462Z,0
2017-02-26T03:27:31.872Z,0
2017-02-26T03:28:31.903Z,0
2017-02-26T03:29:32.340Z,0
2017-02-26T03:30:31.809Z,0
2017-02-26T03:31:31.585Z,0
2017-02-26T03:32:31.650Z,0
2017-02-26T03:33:31.279Z,0
2017-02-26T03:34:31.276Z,0
2017-02-26T03:35:32.362Z,0
2017-02-26T03:36:32.136Z,0
2017-02-26T03:37:32.144Z,0
2017-02-26T03:38:31.783Z,0
2017-02-26T03:39:31.420Z,0
2017-02-26T03:40:31.689Z,0
2017-02-26T03:41:31.858Z,0
2017-02-26T03:42:31.904Z,0
2017-02-26T03:43:32.738Z,0
2017-02-26T03:44:31.944Z,0
2017-02-26T03:45:32.209Z,0
2017-02-26T03:46:32.783Z,0
2017-02-26T03:47:32.401Z,0
2017-02-26T03:48:32.441Z,0
2017-02-26T03:49:31.692Z,0
2017-02-26T03:50:32.340Z,0
2017-02-26T03:51:31.777Z,0
2017-02-26T03:52:32.539Z,0
2017-02-26T03:53:32.969Z,0
2017-02-26T03:54:32.587Z,0
2017-02-26T03:55:32.872Z,0
2017-02-26T03:56:32.652Z,0
2017-02-26T03:57:32.685Z,0
2017-02-26T03:58:32.290Z,0
2017-02-26T03:59:32.326Z,0
2017-02-26T04:00:32.595Z,0
2017-02-26T04:01:32.792Z,0
2017-02-26T04:02:32.833Z,0
2017-02-26T04:03:32.444Z,0
2017-02-26T04:04:32.867Z,0
2017-02-26T04:05:33.524Z,0
2017-02-26T04:06:33.311Z,0
2017-02-26T04:07:32.540Z,0
2017-02-26T04:08:32.577Z,0
2017-02-26T04:09:32.202Z,0
2017-02-26T04:10:32.898Z,0
2017-02-26T04:11:32.643Z,0
2017-02-26T04:12:32.664Z,0
2017-02-26T04:13:33.491Z,0
2017-02-26T04:14:33.105Z,0
2017-02-26T04:15:32.602Z,0
2017-02-26T04:16:32.430Z,0
2017-02-26T04:17:32.824Z,0
2017-02-26T04:18:32.849Z,0
2017-02-26T04:19:32.461Z,0
2017-02-26T04:20:33.128Z,0
2017-02-26T04:21:32.895Z,0
2017-02-26T04:22:33.712Z,0
2017-02-26T04:23:33.749Z,0
2017-02-26T04:24:32.989Z,0
2017-02-26T04:25:33.682Z,0
2017-02-26T04:26:33.426Z,0
2017-02-26T04:27:33.067Z,0
2017-02-26T04:28:32.684Z,0
2017-02-26T04:29:33.113Z,0
2017-02-26T04:30:33.139Z,0
2017-02-26T04:31:33.027Z,0
2017-02-26T04:32:33.583Z,0
2017-02-26T04:33:33.611Z,0
2017-02-26T04:34:32.852Z,0
2017-02-26T04:35:32.891Z,0
2017-02-26T04:36:34.338Z,0
2017-02-26T04:37:32.961Z,0
2017-02-26T04:38:33.742Z,0
2017-02-26T04:39:33.773Z,0
2017-02-26T04:40:33.785Z,0
2017-02-26T04:41:34.084Z,0
2017-02-26T04:42:33.851Z,0
2017-02-26T04:43:33.877Z,0
2017-02-26T04:44:33.100Z,0
2017-02-26T04:45:33.180Z,0
2017-02-26T04:46:34.185Z,0
2017-02-26T04:47:33.574Z,0
2017-02-26T04:48:33.219Z,0
2017-02-26T04:49:34.039Z,0
2017-02-26T04:50:34.053Z,0
2017-02-26T04:51:34.326Z,0
2017-02-26T04:52:33.713Z,0
2017-02-26T04:53:34.522Z,0
2017-02-26T04:54:33.755Z,0
2017-02-26T04:55:33.776Z,0
2017-02-26T04:56:34.472Z,0
2017-02-26T04:57:34.241Z,0
2017-02-26T04:58:34.250Z,0
2017-02-26T04:59:34.298Z,0
2017-02-26T05:00:34.328Z,0
2017-02-26T05:01:34.588Z,0
2017-02-26T05:02:33.977Z,0
2017-02-26T05:03:33.985Z,0
2017-02-26T05:04:33.646Z,0
2017-02-26T05:05:34.051Z,0
2017-02-26T05:06:35.116Z,0
2017-02-26T05:07:34.099Z,0
2017-02-26T05:08:34.551Z,0
2017-02-26T05:09:34.942Z,0
2017-02-26T05:10:34.167Z,0
2017-02-26T05:11:34.067Z,0
2017-02-26T05:12:34.628Z,0
2017-02-26T05:13:34.260Z,0
2017-02-26T05:14:34.273Z,0
2017-02-26T05:15:34.711Z,0
2017-02-26T05:16:35.006Z,0
2017-02-26T05:17:35.152Z,0
2017-02-26T05:18:34.780Z,0
2017-02-26T05:19:35.220Z,0
2017-02-26T05:20:34.826Z,0
2017-02-26T05:21:35.110Z,0
2017-02-26T05:22:34.511Z,0
2017-02-26T05:23:34.115Z,0
2017-02-26T05:24:35.338Z,0
2017-02-26T05:25:34.197Z,0
2017-02-26T05:26:34.439Z,0
2017-02-26T05:27:35.411Z,0
2017-02-26T05:28:34.663Z,0
2017-02-26T05:29:35.095Z,0
2017-02-26T05:30:35.085Z,0
2017-02-26T05:31:35.770Z,0
2017-02-26T05:32:34.007Z,0
2017-02-26T05:33:35.175Z,0
2017-02-26T05:34:34.409Z,0
2017-02-26T05:35:35.208Z,0
2017-02-26T05:36:35.486Z,0
2017-02-26T05:37:35.282Z,0
2017-02-26T05:38:34.495Z,0
2017-02-26T05:39:35.734Z,0
2017-02-26T05:40:34.177Z,0
2017-02-26T05:41:35.641Z,0
2017-02-26T05:42:35.410Z,0
2017-02-26T05:43:35.027Z,0
2017-02-26T05:44:35.467Z,0
2017-02-26T05:45:35.485Z,0
2017-02-26T05:46:35.354Z,0
2017-02-26T05:47:35.158Z,0
2017-02-26T05:48:35.954Z,0
2017-02-26T05:49:35.607Z,0
2017-02-26T05:50:35.272Z,0
2017-02-26T05:51:36.289Z,0
2017-02-26T05:52:35.261Z,0
2017-02-26T05:53:35.678Z,0
2017-02-26T05:54:34.922Z,0
2017-02-26T05:55:35.746Z,0
2017-02-26T05:56:36.011Z,0
2017-02-26T05:57:36.185Z,0
2017-02-26T05:58:35.413Z,0
2017-02-26T05:59:36.260Z,0
2017-02-26T06:00:36.275Z,0
2017-02-26T06:01:36.540Z,0
2017-02-26T06:02:35.175Z,0
2017-02-26T06:03:35.969Z,0
2017-02-26T06:04:36.000Z,0
2017-02-26T06:05:36.007Z,0
2017-02-26T06:06:36.036Z,0
2017-02-26T06:07:36.720Z,0
2017-02-26T06:08:36.097Z,0
2017-02-26T06:09:36.101Z,0
2017-02-26T06:10:35.359Z,0
2017-02-26T06:11:35.375Z,0
2017-02-26T06:12:35.660Z,0
2017-02-26T06:13:35.825Z,0
2017-02-26T06:14:35.837Z,0
2017-02-26T06:15:36.270Z,0
2017-02-26T06:16:36.696Z,0
2017-02-26T06:17:36.588Z,0
2017-02-26T06:18:36.744Z,0
2017-02-26T06:19:35.617Z,0
2017-02-26T06:20:36.394Z,0
2017-02-26T06:21:35.650Z,0
2017-02-26T06:22:36.315Z,0
2017-02-26T06:23:36.876Z,0
2017-02-26T06:24:35.744Z,0
2017-02-26T06:25:36.554Z,0
2017-02-26T06:26:36.170Z,0
2017-02-26T06:27:36.447Z,0
2017-02-26T06:28:35.836Z,0
2017-02-26T06:29:36.229Z,0
2017-02-26T06:30:36.693Z,0
2017-02-26T06:31:36.698Z,0
2017-02-26T06:32:37.370Z,0
2017-02-26T06:33:36.354Z,0
2017-02-26T06:34:37.160Z,0
2017-02-26T06:35:36.805Z,0
2017-02-26T06:36:36.021Z,0
2017-02-26T06:37:36.711Z,0
2017-02-26T06:38:36.504Z,0
2017-02-26T06:39:37.297Z,0
2017-02-26T06:40:36.913Z,0
2017-02-26T06:41:37.345Z,0
2017-02-26T06:42:37.271Z,0
2017-02-26T06:43:36.219Z,0
2017-02-26T06:44:36.716Z,0
2017-02-26T06:45:37.060Z,0
2017-02-26T06:46:36.686Z,0
2017-02-26T06:47:36.958Z,0
2017-02-26T06:48:36.351Z,0
2017-02-26T06:49:36.780Z,0
2017-02-26T06:50:36.800Z,0
2017-02-26T06:51:37.217Z,0
2017-02-26T06:52:37.109Z,0
2017-02-26T06:53:37.262Z,0
2017-02-26T06:54:36.503Z,0
2017-02-26T06:55:36.568Z,0
2017-02-26T06:56:37.781Z,0
2017-02-26T06:57:37.216Z,0
2017-02-26T06:58:36.606Z,0
2017-02-26T06:59:37.015Z,0
2017-02-26T07:00:37.051Z,0
2017-02-26T07:01:37.516Z,0
2017-02-26T07:02:37.341Z,0
2017-02-26T07:03:37.538Z,0
2017-02-26T07:04:37.155Z,0
2017-02-26T07:05:36.815Z,0
2017-02-26T07:06:37.623Z,0
2017-02-26T07:07:37.105Z,0
2017-02-26T07:08:36.872Z,0
2017-02-26T07:09:37.691Z,0
2017-02-26T07:10:37.315Z,5
2017-02-26T07:11:38.132Z,5
2017-02-26T07:12:38.032Z,5
2017-02-26T07:13:36.601Z,5
2017-02-26T07:14:37.030Z,5
2017-02-26T07:15:37.062Z,5
2017-02-26T07:16:37.876Z,5
2017-02-26T07:17:37.780Z,5
2017-02-26T07:18:37.524Z,5
2017-02-26T07:19:37.173Z,5
2017-02-26T07:20:37.622Z,5
2017-02-26T07:21:38.019Z,5
2017-02-26T07:22:37.891Z,5
2017-02-26T07:23:38.449Z,5
2017-02-26T07:24:38.493Z,5
2017-02-26T07:25:38.146Z,5
2017-02-26T07:26:37.735Z,5
2017-02-26T07:27:38.803Z,5
2017-02-26T07:28:37.792Z,5
2017-02-26T07:29:37.425Z,5
2017-02-26T07:30:38.649Z,5
2017-02-26T07:31:37.494Z,5
2017-02-26T07:32:38.547Z,5
2017-02-26T07:33:38.327Z,5
2017-02-26T07:34:38.365Z,5
2017-02-26T07:35:38.390Z,5
2017-02-26T07:36:38.401Z,5
2017-02-26T07:37:37.899Z,5
2017-02-26T07:38:38.471Z,5
2017-02-26T07:39:38.884Z,5
2017-02-26T07:40:38.508Z,5
2017-02-26T07:41:38.137Z,5
2017-02-26T07:42:38.431Z,5
2017-02-26T07:43:37.806Z,5
2017-02-26T07:44:38.624Z,5
2017-02-26T07:45:38.253Z,5
2017-02-26T07:46:38.285Z,5
2017-02-26T07:47:39.365Z,5
2017-02-26T07:48:38.718Z,5
2017-02-26T07:49:38.375Z,5
2017-02-26T07:50:38.388Z,5
2017-02-26T07:51:37.613Z,5
2017-02-26T07:52:38.685Z,5
2017-02-26T07:53:38.474Z,5
2017-02-26T07:54:38.891Z,5
2017-02-26T07:55:38.915Z,10
2017-02-26T07:56:38.541Z,10
2017-02-26T07:57:39.215Z,10
2017-02-26T07:58:39.400Z,10
2017-02-26T07:59:38.610Z,15
2017-02-26T08:00:38.643Z,15
2017-02-26T08:01:38.291Z,15
2017-02-26T08:02:39.731Z,15
2017-02-26T08:03:39.153Z,15
2017-02-26T08:04:39.145Z,15
2017-02-26T08:05:39.570Z,15
2017-02-26T08:06:38.840Z,15
2017-02-26T08:07:39.872Z,15
2017-02-26T08:08:38.871Z,15
2017-02-26T08:09:38.509Z,15
2017-02-26T08:10:38.186Z,15
2017-02-26T08:11:38.967Z,15
2017-02-26T08:12:39.004Z,15
2017-02-26T08:13:38.849Z,15
2017-02-26T08:14:38.647Z,15
2017-02-26T08:15:39.053Z,15
2017-02-26T08:16:39.467Z,15
2017-02-26T08:17:39.503Z,15
2017-02-26T08:18:39.772Z,15
2017-02-26T08:19:39.980Z,15
2017-02-26T08:20:39.572Z,20
2017-02-26T08:21:39.649Z,20
2017-02-26T08:22:39.250Z,20
2017-02-26T08:23:40.316Z,20
2017-02-26T08:24:39.681Z,20
2017-02-26T08:25:39.313Z,20
2017-02-26T08:26:38.553Z,20
2017-02-26T08:27:39.759Z,20
2017-02-26T08:28:39.675Z,20
2017-02-26T08:29:40.226Z,20
2017-02-26T08:30:39.456Z,20
2017-02-26T08:31:39.089Z,20
2017-02-26T08:32:39.518Z,20
2017-02-26T08:33:39.778Z,20
2017-02-26T08:34:39.960Z,20
2017-02-26T08:35:39.593Z,20
2017-02-26T08:36:40.019Z,20
2017-02-26T08:37:40.024Z,20
2017-02-26T08:38:40.303Z,20
2017-02-26T08:39:40.507Z,20
2017-02-26T08:40:40.128Z,20
2017-02-26T08:41:39.363Z,20
2017-02-26T08:42:38.977Z,25
2017-02-26T08:43:40.443Z,25
2017-02-26T08:44:39.823Z,25
2017-02-26T08:45:40.241Z,25
2017-02-26T08:46:40.274Z,25
2017-02-26T08:47:40.336Z,25
2017-02-26T08:48:40.989Z,25
2017-02-26T08:49:40.358Z,25
2017-02-26T08:50:40.415Z,25
2017-02-26T08:51:40.011Z,25
2017-02-26T08:52:40.437Z,25
2017-02-26T08:53:40.714Z,25
2017-02-26T08:54:40.095Z,25
2017-02-26T08:55:40.932Z,30
2017-02-26T08:56:40.144Z,30
2017-02-26T08:57:40.193Z,30
2017-02-26T08:58:40.038Z,30
2017-02-26T08:59:40.224Z,30
2017-02-26T09:00:41.051Z,30
2017-02-26T09:01:40.681Z,30
2017-02-26T09:02:40.705Z,30
2017-02-26T09:03:40.582Z,30
2017-02-26T09:04:40.350Z,30
2017-02-26T09:05:39.978Z,30
2017-02-26T09:06:40.406Z,30
2017-02-26T09:07:40.837Z,30
2017-02-26T09:08:41.502Z,35
2017-02-26T09:09:39.694Z,35
2017-02-26T09:10:40.159Z,35
2017-02-26T09:11:40.947Z,40
2017-02-26T09:12:40.969Z,40
2017-02-26T09:13:41.638Z,40
2017-02-26T09:14:41.016Z,45
2017-02-26T09:15:40.663Z,45
2017-02-26T09:16:40.280Z,45
2017-02-26T09:17:40.700Z,40
2017-02-26T09:18:41.373Z,40
2017-02-26T09:19:41.174Z,35
2017-02-26T09:20:41.193Z,35
2017-02-26T09:21:40.420Z,35
2017-02-26T09:22:40.065Z,35
2017-02-26T09:23:41.508Z,35
2017-02-26T09:24:41.709Z,35
2017-02-26T09:25:40.911Z,35
2017-02-26T09:26:41.343Z,35
2017-02-26T09:27:41.373Z,35
2017-02-26T09:28:42.064Z,30
2017-02-26T09:29:40.618Z,30
2017-02-26T09:30:41.066Z,30
2017-02-26T09:31:40.706Z,30
2017-02-26T09:32:40.728Z,25
2017-02-26T09:33:41.774Z,20
2017-02-26T09:34:41.157Z,20
2017-02-26T09:35:41.239Z,20
2017-02-26T09:36:41.224Z,20
2017-02-26T09:37:40.875Z,20
2017-02-26T09:38:41.936Z,20
2017-02-26T09:39:42.081Z,25
2017-02-26T09:40:41.730Z,25
2017-02-26T09:41:41.362Z,25
2017-02-26T09:42:41.791Z,25
2017-02-26T09:43:42.488Z,25
2017-02-26T09:44:41.429Z,25
2017-02-26T09:45:41.457Z,30
2017-02-26T09:46:41.478Z,30
2017-02-26T09:47:41.898Z,30
2017-02-26T09:48:41.952Z,35
2017-02-26T09:49:42.205Z,45
2017-02-26T09:50:42.378Z,50
2017-02-26T09:51:41.606Z,45
2017-02-26T09:52:42.438Z,45
2017-02-26T09:53:42.055Z,45
2017-02-26T09:54:42.337Z,45
2017-02-26T09:55:42.144Z,45
2017-02-26T09:56:41.766Z,45
2017-02-26T09:57:41.806Z,45
2017-02-26T09:58:41.815Z,45
2017-02-26T09:59:42.872Z,45
2017-02-26T10:00:41.455Z,45
2017-02-26T10:01:41.884Z,50
2017-02-26T10:02:42.718Z,50
2017-02-26T10:03:41.548Z,50
2017-02-26T10:04:42.624Z,50
2017-02-26T10:05:42.393Z,50
2017-02-26T10:06:42.426Z,50
2017-02-26T10:07:42.066Z,50
2017-02-26T10:08:41.687Z,50
2017-02-26T10:09:42.743Z,50
2017-02-26T10:10:42.136Z,50
2017-02-26T10:11:41.749Z,50
2017-02-26T10:12:41.790Z,35
2017-02-26T10:13:42.230Z,55
2017-02-26T10:14:43.271Z,55
2017-02-26T10:15:42.259Z,55
2017-02-26T10:16:42.682Z,55
2017-02-26T10:17:42.711Z,60
2017-02-26T10:18:43.151Z,60
2017-02-26T10:19:43.017Z,60
2017-02-26T10:20:42.824Z,55
2017-02-26T10:21:42.412Z,30
2017-02-26T10:22:42.045Z,35
2017-02-26T10:23:42.465Z,35
2017-02-26T10:24:43.175Z,60
2017-02-26T10:25:42.130Z,55
2017-02-26T10:26:42.159Z,40
2017-02-26T10:27:42.585Z,35
2017-02-26T10:28:43.006Z,35
2017-02-26T10:29:43.719Z,40
2017-02-26T10:30:42.687Z,50
2017-02-26T10:31:43.096Z,40
2017-02-26T10:32:43.108Z,55
2017-02-26T10:33:42.761Z,50
2017-02-26T10:34:43.430Z,50
2017-02-26T10:35:43.203Z,45
2017-02-26T10:36:42.858Z,50
2017-02-26T10:37:42.485Z,45
2017-02-26T10:38:43.677Z,40
2017-02-26T10:39:43.966Z,35
2017-02-26T10:40:42.169Z,35
2017-02-26T10:41:42.980Z,40
2017-02-26T10:42:42.988Z,45
2017-02-26T10:43:43.421Z,40
2017-02-26T10:44:43.705Z,30
2017-02-26T10:45:43.495Z,25
2017-02-26T10:46:42.714Z,35
2017-02-26T10:47:43.168Z,35
2017-02-26T10:48:43.177Z,45
2017-02-26T10:49:43.194Z,55
2017-02-26T10:50:43.862Z,60
2017-02-26T10:51:42.855Z,55
2017-02-26T10:52:43.284Z,55
2017-02-26T10:53:43.689Z,55
2017-02-26T10:54:43.729Z,55
2017-02-26T10:55:44.406Z,55
2017-02-26T10:56:43.415Z,55
2017-02-26T10:57:43.404Z,55
2017-02-26T10:58:43.452Z,55
2017-02-26T10:59:43.848Z,55
2017-02-26T11:00:44.538Z,55
2017-02-26T11:01:43.527Z,55
2017-02-26T11:02:44.350Z,55
2017-02-26T11:03:43.976Z,55
2017-02-26T11:04:43.591Z,55
2017-02-26T11:05:43.891Z,55
2017-02-26T11:06:43.267Z,55
2017-02-26T11:07:44.495Z,55
2017-02-26T11:08:44.496Z,55
2017-02-26T11:09:44.542Z,60
2017-02-26T11:10:44.401Z,60
2017-02-26T11:11:43.798Z,60
2017-02-26T11:12:44.223Z,60
2017-02-26T11:13:43.848Z,60
2017-02-26T11:14:43.493Z,65
2017-02-26T11:15:44.169Z,70
2017-02-26T11:16:44.722Z,70
2017-02-26T11:17:43.563Z,70
2017-02-26T11:18:43.991Z,75
2017-02-26T11:19:44.417Z,75
2017-02-26T11:20:44.304Z,80
2017-02-26T11:21:44.067Z,80
2017-02-26T11:22:44.510Z,85
2017-02-26T11:23:44.904Z,85
2017-02-26T11:24:44.549Z,90
2017-02-26T11:25:44.453Z,90
2017-02-26T11:26:44.205Z,90
2017-02-26T11:27:44.642Z,95
2017-02-26T11:28:44.667Z,95
2017-02-26T11:29:43.912Z,95
2017-02-26T11:30:44.177Z,100
2017-02-26T11:31:44.345Z,100
2017-02-26T11:32:43.994Z,100
2017-02-26T11:33:44.026Z,100
2017-02-26T11:34:44.824Z,100
2017-02-26T11:35:45.097Z,100
2017-02-26T11:36:45.289Z,105
2017-02-26T11:37:44.911Z,105
2017-02-26T11:38:44.963Z,105
2017-02-26T11:39:44.571Z,105
2017-02-26T11:40:45.266Z,105
2017-02-26T11:41:45.018Z,110
2017-02-26T11:42:44.673Z,110
2017-02-26T11:43:45.106Z,110
2017-02-26T11:44:44.351Z,110
2017-02-26T11:45:44.200Z,115
2017-02-26T11:46:44.790Z,110
2017-02-26T11:47:45.190Z,115
2017-02-26T11:48:45.223Z,115
2017-02-26T11:49:45.658Z,115
2017-02-26T11:50:45.536Z,115
2017-02-26T11:51:44.545Z,115
2017-02-26T11:52:45.341Z,115
2017-02-26T11:53:45.366Z,115
2017-02-26T11:54:45.002Z,110
2017-02-26T11:55:45.020Z,110
2017-02-26T11:56:44.900Z,110
2017-02-26T11:57:45.474Z,110
2017-02-26T11:58:45.113Z,110
2017-02-26T11:59:44.775Z,110
2017-02-26T12:00:45.955Z,110
2017-02-26T12:01:45.078Z,115
2017-02-26T12:02:45.627Z,115
2017-02-26T12:03:45.241Z,120
2017-02-26T12:04:46.062Z,130
2017-02-26T12:05:44.925Z,135
2017-02-26T12:06:45.988Z,140
2017-02-26T12:07:45.368Z,145
2017-02-26T12:08:44.601Z,155
2017-02-26T12:09:45.434Z,155
2017-02-26T12:10:45.845Z,155
2017-02-26T12:11:45.771Z,155
2017-02-26T12:12:45.520Z,160
2017-02-26T12:13:45.949Z,165
2017-02-26T12:14:45.945Z,180
2017-02-26T12:15:46.002Z,185
2017-02-26T12:16:45.471Z,170
2017-02-26T12:17:45.635Z,165
2017-02-26T12:18:46.068Z,165
2017-02-26T12:19:45.737Z,160
2017-02-26T12:20:45.738Z,155
2017-02-26T12:21:46.026Z,160
2017-02-26T12:22:46.182Z,160
2017-02-26T12:23:45.828Z,165
2017-02-26T12:24:45.853Z,160
2017-02-26T12:25:46.270Z,160
2017-02-26T12:26:46.555Z,160
2017-02-26T12:27:46.340Z,160
2017-02-26T12:28:45.980Z,160
2017-02-26T12:29:46.824Z,160
2017-02-26T12:30:45.624Z,165
2017-02-26T12:31:47.110Z,165
2017-02-26T12:32:45.303Z,165
2017-02-26T12:33:46.511Z,165
2017-02-26T12:34:46.151Z,165
2017-02-26T12:35:46.181Z,165
2017-02-26T12:36:46.454Z,165
2017-02-26T12:37:46.222Z,165
2017-02-26T12:38:46.719Z,165
2017-02-26T12:39:46.700Z,165
2017-02-26T12:40:46.725Z,165
2017-02-26T12:41:46.606Z,160
2017-02-26T12:42:46.794Z,165
2017-02-26T12:43:45.635Z,165
2017-02-26T12:44:45.668Z,160
2017-02-26T12:45:46.491Z,160
2017-02-26T12:46:46.644Z,160
2017-02-26T12:47:46.136Z,165
2017-02-26T12:48:47.007Z,160
2017-02-26T12:49:46.975Z,160
2017-02-26T12:50:46.236Z,160
2017-02-26T12:51:46.909Z,160
2017-02-26T12:52:46.684Z,160
2017-02-26T12:53:47.515Z,150
2017-02-26T12:54:47.151Z,125
2017-02-26T12:55:47.580Z,150
2017-02-26T12:56:47.748Z,145
2017-02-26T12:57:47.622Z,145
2017-02-26T12:58:46.882Z,145
2017-02-26T12:59:47.307Z,150
2017-02-26T13:00:46.951Z,145
2017-02-26T13:01:47.612Z,145
2017-02-26T13:02:47.393Z,80
2017-02-26T13:03:46.646Z,140
2017-02-26T13:04:47.096Z,120
2017-02-26T13:05:47.095Z,135
2017-02-26T13:06:47.207Z,130
2017-02-26T13:07:47.169Z,125
2017-02-26T13:08:47.973Z,125
2017-02-26T13:09:47.214Z,120
2017-02-26T13:10:47.644Z,120
2017-02-26T13:11:47.801Z,115
2017-02-26T13:12:46.913Z,115
2017-02-26T13:13:46.556Z,115
2017-02-26T13:14:47.366Z,110
2017-02-26T13:15:47.004Z,110
2017-02-26T13:16:47.699Z,110
2017-02-26T13:17:47.062Z,110
2017-02-26T13:18:48.346Z,110
2017-02-26T13:19:48.315Z,110
2017-02-26T13:20:48.351Z,110
2017-02-26T13:21:48.640Z,110
2017-02-26T13:22:48.412Z,110
2017-02-26T13:23:47.649Z,110
2017-02-26T13:24:48.098Z,105
2017-02-26T13:25:48.529Z,105
2017-02-26T13:26:48.617Z,105
2017-02-26T13:27:47.796Z,105
2017-02-26T13:28:47.804Z,100
2017-02-26T13:29:48.234Z,100
2017-02-26T13:30:47.853Z,100
2017-02-26T13:31:48.147Z,100
2017-02-26T13:32:47.916Z,95
2017-02-26T13:33:47.957Z,95
2017-02-26T13:34:47.986Z,95
2017-02-26T13:35:48.403Z,95
2017-02-26T13:36:48.715Z,90
2017-02-26T13:37:48.883Z,90
2017-02-26T13:38:48.576Z,90
2017-02-26T13:39:48.173Z,90
2017-02-26T13:40:48.986Z,90
2017-02-26T13:41:48.850Z,90
2017-02-26T13:42:47.836Z,90
2017-02-26T13:43:49.068Z,90
2017-02-26T13:44:48.690Z,90
2017-02-26T13:45:48.730Z,90
2017-02-26T13:46:49.004Z,90
2017-02-26T13:47:49.173Z,90
2017-02-26T13:48:49.216Z,90
2017-02-26T13:49:48.848Z,90
2017-02-26T13:50:48.921Z,90
2017-02-26T13:51:48.658Z,85
2017-02-26T13:52:49.335Z,80
2017-02-26T13:53:47.780Z,80
2017-02-26T13:54:48.997Z,65
2017-02-26T13:55:48.635Z,85
2017-02-26T13:56:48.783Z,80
2017-02-26T13:57:48.712Z,80
2017-02-26T13:58:49.116Z,80
2017-02-26T13:59:49.165Z,75
2017-02-26T14:00:49.191Z,75
2017-02-26T14:01:50.827Z,75
2017-02-26T14:02:49.237Z,75
2017-02-26T14:03:49.676Z,70
2017-02-26T14:04:49.336Z,70
2017-02-26T14:05:49.326Z,70
2017-02-26T14:06:49.214Z,70
2017-02-26T14:07:49.799Z,70
2017-02-26T14:08:49.036Z,70
2017-02-26T14:09:49.480Z,70
2017-02-26T14:10:49.869Z,70
2017-02-26T14:11:49.793Z,70
2017-02-26T14:12:49.159Z,65
2017-02-26T14:13:49.207Z,65
2017-02-26T14:14:50.007Z,65
2017-02-26T14:15:49.243Z,65
2017-02-26T14:16:50.350Z,65
2017-02-26T14:17:49.711Z,60
2017-02-26T14:18:49.740Z,60
2017-02-26T14:19:49.808Z,60
2017-02-26T14:20:48.997Z,60
2017-02-26T14:21:50.468Z,60
2017-02-26T14:22:50.262Z,60
2017-02-26T14:23:49.916Z,60
2017-02-26T14:24:49.532Z,60
2017-02-26T14:25:49.589Z,60
2017-02-26T14:26:49.981Z,55
2017-02-26T14:27:49.742Z,55
2017-02-26T14:28:49.655Z,55